Time;durP1;ratioP1;P1;durP2;ratioP2;P2;SDS_P1;SDS_P2;PMS_P1;PMS_P2;Temp;Humidity;BMP_temperature;BMP_pressure;BME280_temperature;BME280_humidity;BME280_pressure;Samples;Min_cycle;Max_cycle;Signal;HPM_P1;HPM_P2
2023/12/15 00:01:52;;;;;;;7.27;6.53;;;5.60;76.90;;;;;;5027216;28;20278;-64
2023/12/15 00:04:18;;;;;;;7.33;6.60;;;5.60;76.60;;;;;;5020270;28;20240;-62
2023/12/15 00:06:45;;;;;;;7.30;6.60;;;5.60;77.30;;;;;;5029992;28;20236;-62
2023/12/15 00:09:11;;;;;;;6.73;6.03;;;5.70;76.90;;;;;;5023235;28;20562;-62
2023/12/15 00:11:38;;;;;;;7.30;6.53;;;5.60;77.00;;;;;;5020700;28;20256;-63
2023/12/15 00:14:04;;;;;;;8.23;7.30;;;5.60;76.30;;;;;;5023312;28;20276;-64
2023/12/15 00:16:31;;;;;;;8.03;7.20;;;5.60;76.90;;;;;;5015010;28;20233;-64
2023/12/15 00:18:58;;;;;;;8.30;7.50;;;5.70;76.90;;;;;;5023083;28;20287;-64
2023/12/15 00:21:24;;;;;;;7.57;6.60;;;5.70;76.50;;;;;;5022830;28;20234;-63
2023/12/15 00:23:51;;;;;;;7.43;6.73;;;5.70;76.80;;;;;;5023686;28;20209;-65
2023/12/15 00:26:17;;;;;;;7.87;7.07;;;5.70;77.00;;;;;;5021172;28;20252;-63
2023/12/15 00:28:44;;;;;;;7.90;7.17;;;5.70;76.50;;;;;;5015611;28;20232;-63
2023/12/15 00:31:10;;;;;;;7.73;7.03;;;5.60;77.00;;;;;;5022204;28;20259;-64
2023/12/15 00:33:37;;;;;;;7.70;7.00;;;5.70;77.40;;;;;;5025655;28;20757;-61
2023/12/15 00:36:03;;;;;;;7.80;6.93;;;5.70;77.60;;;;;;5031685;28;20267;-62
2023/12/15 00:38:30;;;;;;;8.10;7.30;;;5.70;77.70;;;;;;5025376;28;20210;-63
2023/12/15 00:40:56;;;;;;;8.23;7.27;;;5.70;77.10;;;;;;5028433;28;20228;-63
2023/12/15 00:43:23;;;;;;;7.47;6.77;;;5.70;77.10;;;;;;5023897;28;20652;-63
2023/12/15 00:45:49;;;;;;;9.30;7.60;;;5.60;76.90;;;;;;5030920;28;20264;-62
2023/12/15 00:48:16;;;;;;;8.73;7.93;;;5.60;77.50;;;;;;5022661;28;20279;-61
2023/12/15 00:50:42;;;;;;;9.50;8.47;;;5.60;78.00;;;;;;5030830;28;20230;-64
2023/12/15 00:53:09;;;;;;;9.67;8.67;;;5.60;77.80;;;;;;5022846;28;20233;-64
2023/12/15 00:55:35;;;;;;;8.70;7.80;;;5.70;78.30;;;;;;5024209;28;20229;-65
2023/12/15 00:58:02;;;;;;;9.63;8.63;;;5.70;77.90;;;;;;5030688;28;20299;-63
2023/12/15 01:00:28;;;;;;;10.43;8.67;;;5.70;78.00;;;;;;5025729;28;20743;-62
2023/12/15 01:02:54;;;;;;;11.00;9.40;;;5.70;78.30;;;;;;5027891;28;20235;-63
2023/12/15 01:05:20;;;;;;;10.53;9.43;;;5.70;77.60;;;;;;5026629;28;20253;-63
2023/12/15 01:07:47;;;;;;;10.80;9.70;;;5.70;77.50;;;;;;5030040;28;20241;-60
2023/12/15 01:10:14;;;;;;;10.90;9.80;;;5.70;77.70;;;;;;5035005;28;20630;-61
2023/12/15 01:12:41;;;;;;;11.43;10.03;;;5.70;78.10;;;;;;5022771;28;20232;-61
2023/12/15 01:15:07;;;;;;;11.00;9.90;;;5.70;78.00;;;;;;5029014;28;20261;-63
2023/12/15 01:17:34;;;;;;;11.10;9.63;;;5.70;77.60;;;;;;5024484;28;20210;-63
2023/12/15 01:20:00;;;;;;;11.33;10.13;;;5.70;77.80;;;;;;5026156;28;20240;-63
2023/12/15 01:22:27;;;;;;;10.77;9.63;;;5.70;77.60;;;;;;5018111;28;20228;-62
2023/12/15 01:24:53;;;;;;;11.43;10.23;;;5.70;78.70;;;;;;5022629;28;20255;-61
2023/12/15 01:27:20;;;;;;;11.30;9.57;;;5.70;78.60;;;;;;5022756;28;20271;-64
2023/12/15 01:29:46;;;;;;;13.90;11.33;;;5.70;78.60;;;;;;5026001;28;20262;-63
2023/12/15 01:32:13;;;;;;;13.70;11.33;;;5.70;78.40;;;;;;5032482;28;20245;-63
2023/12/15 01:34:39;;;;;;;11.57;10.37;;;5.60;78.90;;;;;;5019919;28;20252;-61
2023/12/15 01:37:06;;;;;;;12.37;10.43;;;5.60;79.30;;;;;;5021942;28;20238;-61
2023/12/15 01:39:32;;;;;;;13.37;10.10;;;5.50;79.60;;;;;;5023948;28;20242;-62
2023/12/15 01:41:59;;;;;;;10.60;9.50;;;5.50;78.60;;;;;;5027328;28;20251;-62
2023/12/15 01:44:25;;;;;;;10.40;8.60;;;5.50;78.60;;;;;;5022359;28;20247;-64
2023/12/15 01:46:52;;;;;;;9.47;8.47;;;5.60;76.50;;;;;;5022152;28;20252;-63
2023/12/15 01:49:18;;;;;;;7.90;7.10;;;5.60;75.30;;;;;;5021260;28;20247;-63
2023/12/15 01:51:45;;;;;;;8.63;7.20;;;5.60;74.30;;;;;;5024529;28;20762;-62
2023/12/15 01:54:11;;;;;;;7.80;7.00;;;5.50;75.10;;;;;;5025335;28;20205;-63
2023/12/15 01:56:38;;;;;;;7.00;6.37;;;5.50;74.90;;;;;;5022606;28;20260;-62
2023/12/15 01:59:04;;;;;;;4.93;4.53;;;5.40;74.70;;;;;;5021850;28;20250;-63
2023/12/15 02:01:31;;;;;;;5.87;5.27;;;5.40;73.80;;;;;;5023596;28;20208;-64
2023/12/15 02:03:57;;;;;;;6.13;5.53;;;5.30;75.00;;;;;;5024992;28;20243;-62
2023/12/15 02:06:24;;;;;;;5.17;4.67;;;5.20;73.60;;;;;;5027575;28;20395;-66
2023/12/15 02:08:50;;;;;;;4.93;4.47;;;5.20;73.80;;;;;;5024261;28;20286;-64
2023/12/15 02:11:17;;;;;;;5.80;5.20;;;5.20;73.80;;;;;;5032923;28;20263;-64
2023/12/15 02:13:43;;;;;;;5.33;4.83;;;5.20;73.90;;;;;;5025001;28;20644;-63
2023/12/15 02:16:10;;;;;;;5.20;4.70;;;5.20;73.10;;;;;;5024827;28;20286;-65
2023/12/15 02:18:36;;;;;;;12.23;6.70;;;5.10;73.20;;;;;;5022361;28;20245;-62
2023/12/15 02:21:03;;;;;;;5.13;4.70;;;5.10;72.70;;;;;;5021852;28;20235;-67
2023/12/15 02:23:29;;;;;;;5.80;5.20;;;5.10;73.70;;;;;;5030752;28;20238;-64
2023/12/15 02:25:56;;;;;;;5.00;4.50;;;5.10;74.00;;;;;;5017565;28;20262;-65
2023/12/15 02:28:22;;;;;;;5.07;4.60;;;5.10;72.70;;;;;;5023539;28;20216;-64
2023/12/15 02:30:49;;;;;;;5.17;4.63;;;5.10;73.40;;;;;;5020947;28;20608;-64
2023/12/15 02:33:15;;;;;;;6.13;5.63;;;5.10;73.70;;;;;;5027732;28;20236;-65
2023/12/15 02:35:42;;;;;;;6.33;5.20;;;5.20;73.40;;;;;;5020677;28;20664;-64
2023/12/15 02:38:08;;;;;;;5.93;5.33;;;5.10;72.70;;;;;;5024046;28;20322;-64
2023/12/15 02:40:35;;;;;;;5.80;5.20;;;5.10;73.80;;;;;;5029108;28;20302;-65
2023/12/15 02:43:01;;;;;;;6.33;5.73;;;5.10;73.80;;;;;;5019375;28;20248;-63
2023/12/15 02:45:28;;;;;;;6.57;5.90;;;5.10;73.00;;;;;;5023531;28;20723;-64
2023/12/15 02:47:54;;;;;;;6.63;5.93;;;5.10;73.20;;;;;;5024486;28;20244;-64
2023/12/15 02:50:21;;;;;;;7.37;6.37;;;5.10;73.60;;;;;;5017738;28;20249;-65
2023/12/15 02:52:47;;;;;;;6.60;5.90;;;5.10;73.40;;;;;;5020744;28;20273;-64
2023/12/15 02:55:13;;;;;;;7.83;6.47;;;5.10;73.40;;;;;;5020548;28;20261;-64
2023/12/15 02:57:40;;;;;;;7.97;6.37;;;5.00;73.50;;;;;;5028682;28;20899;-63
2023/12/15 03:00:06;;;;;;;7.30;6.60;;;5.10;74.00;;;;;;5019226;28;20240;-67
2023/12/15 03:02:33;;;;;;;8.03;6.67;;;5.10;72.70;;;;;;5018487;28;20227;-64
2023/12/15 03:04:59;;;;;;;6.77;6.13;;;5.10;73.00;;;;;;5025601;28;20624;-64
2023/12/15 03:07:26;;;;;;;6.90;6.20;;;5.20;72.80;;;;;;5013933;28;20260;-64
2023/12/15 03:09:52;;;;;;;7.63;6.87;;;5.10;72.70;;;;;;5024006;28;20236;-62
2023/12/15 03:12:19;;;;;;;7.70;6.90;;;5.10;72.70;;;;;;5023606;28;20258;-68
2023/12/15 03:14:45;;;;;;;8.80;6.50;;;5.20;72.80;;;;;;5026739;28;20245;-64
2023/12/15 03:17:12;;;;;;;7.77;6.63;;;5.20;72.80;;;;;;5018780;28;20212;-64
2023/12/15 03:19:38;;;;;;;7.40;6.40;;;5.10;72.70;;;;;;5022051;28;20238;-62
2023/12/15 03:22:05;;;;;;;8.63;7.00;;;5.20;72.60;;;;;;5023926;28;20694;-62
2023/12/15 03:24:31;;;;;;;8.27;6.70;;;5.10;72.70;;;;;;5027597;28;20238;-62
2023/12/15 03:26:58;;;;;;;7.37;6.67;;;5.00;72.60;;;;;;5020235;28;20244;-66
2023/12/15 03:29:24;;;;;;;8.33;7.33;;;5.10;72.70;;;;;;5020713;28;20249;-65
2023/12/15 03:31:51;;;;;;;7.97;6.83;;;5.20;72.80;;;;;;5027544;28;20323;-62
2023/12/15 03:34:17;;;;;;;7.67;6.87;;;5.10;72.30;;;;;;5020024;28;20298;-64
2023/12/15 03:36:44;;;;;;;8.37;7.47;;;5.00;72.60;;;;;;5023332;28;20673;-62
2023/12/15 03:39:10;;;;;;;8.10;7.20;;;5.10;72.50;;;;;;5026412;28;20254;-65
2023/12/15 03:41:37;;;;;;;7.93;6.63;;;5.10;72.70;;;;;;5021707;28;20210;-65
2023/12/15 03:44:03;;;;;;;8.90;7.37;;;5.10;72.10;;;;;;5018889;28;20231;-63
2023/12/15 03:46:30;;;;;;;7.97;7.10;;;5.20;71.90;;;;;;5020850;28;20264;-65
2023/12/15 03:48:56;;;;;;;8.27;7.27;;;5.10;71.80;;;;;;5028968;28;20263;-64
2023/12/15 03:51:23;;;;;;;8.57;7.43;;;5.10;71.80;;;;;;5022777;28;20262;-64
2023/12/15 03:53:50;;;;;;;9.00;7.80;;;5.00;72.00;;;;;;5023103;28;20244;-67
2023/12/15 03:56:16;;;;;;;9.10;7.20;;;5.00;72.60;;;;;;5022591;28;20225;-62
2023/12/15 03:58:43;;;;;;;8.03;7.23;;;5.10;73.00;;;;;;5019895;28;20236;-64
2023/12/15 04:01:10;;;;;;;8.80;7.23;;;5.10;73.30;;;;;;5019413;28;20657;-65
2023/12/15 04:03:36;;;;;;;7.73;6.87;;;5.00;73.40;;;;;;5025274;28;20232;-63
2023/12/15 04:06:07;;;;;;;8.33;6.97;;;5.00;73.40;;;;;;5024988;28;20274;-64
2023/12/15 04:08:33;;;;;;;9.63;8.07;;;5.10;73.80;;;;;;5029348;28;20761;-64
2023/12/15 04:11:00;;;;;;;10.10;8.23;;;5.00;73.60;;;;;;5023146;28;20212;-66
2023/12/15 04:13:26;;;;;;;8.33;7.23;;;4.90;73.20;;;;;;5022081;28;20277;-62
2023/12/15 04:15:53;;;;;;;9.27;7.70;;;4.90;73.00;;;;;;5021079;28;20254;-62
2023/12/15 04:18:19;;;;;;;8.43;7.20;;;4.90;73.00;;;;;;5022759;28;20686;-64
2023/12/15 04:20:46;;;;;;;8.40;7.37;;;5.00;72.80;;;;;;5022171;28;20268;-64
2023/12/15 04:23:12;;;;;;;8.13;7.33;;;4.90;72.80;;;;;;5025494;28;20225;-64
2023/12/15 04:25:39;;;;;;;9.33;7.77;;;5.00;73.60;;;;;;5020721;28;20677;-64
2023/12/15 04:28:05;;;;;;;8.97;7.40;;;5.00;73.70;;;;;;5019564;28;20214;-64
2023/12/15 04:30:32;;;;;;;8.13;7.17;;;5.00;73.60;;;;;;5027211;28;20282;-64
2023/12/15 04:33:04;;;;;;;9.27;7.70;;;4.90;73.80;;;;;;5022792;28;20227;-65
2023/12/15 04:35:30;;;;;;;10.50;8.83;;;4.90;74.30;;;;;;5022234;28;20223;-64
2023/12/15 04:37:57;;;;;;;9.97;7.97;;;4.90;74.00;;;;;;5022460;28;20212;-63
2023/12/15 04:40:23;;;;;;;9.20;7.73;;;4.90;73.60;;;;;;5022789;28;20228;-65
2023/12/15 04:42:50;;;;;;;10.17;8.07;;;4.90;73.90;;;;;;5030268;28;20211;-64
2023/12/15 04:45:16;;;;;;;9.10;7.70;;;4.90;74.00;;;;;;5022177;28;20225;-64
2023/12/15 04:47:43;;;;;;;8.83;7.93;;;4.90;74.00;;;;;;5019517;28;20219;-64
2023/12/15 04:50:09;;;;;;;8.97;8.07;;;4.90;73.60;;;;;;5024132;28;20207;-63
2023/12/15 04:52:36;;;;;;;9.70;8.27;;;5.00;73.00;;;;;;5021642;28;20231;-62
2023/12/15 04:55:02;;;;;;;10.20;8.23;;;4.90;73.20;;;;;;5023733;28;20250;-65
2023/12/15 04:57:28;;;;;;;8.97;7.73;;;5.00;73.00;;;;;;5026369;28;20591;-64
2023/12/15 04:59:55;;;;;;;9.53;8.10;;;5.00;73.70;;;;;;5019224;28;20215;-63
2023/12/15 05:02:21;;;;;;;9.83;7.90;;;4.90;72.50;;;;;;5017770;28;20203;-62
2023/12/15 05:04:48;;;;;;;8.80;7.90;;;5.00;72.60;;;;;;5017502;28;20228;-62
2023/12/15 05:07:14;;;;;;;9.17;8.10;;;5.00;72.70;;;;;;5025443;28;20300;-61
2023/12/15 05:09:41;;;;;;;9.40;7.43;;;5.00;72.60;;;;;;5019968;28;20209;-63
2023/12/15 05:12:08;;;;;;;9.57;7.80;;;5.00;73.30;;;;;;5025009;28;20223;-65
2023/12/15 05:14:34;;;;;;;8.10;7.27;;;4.90;73.10;;;;;;5022890;28;20219;-62
2023/12/15 05:17:02;;;;;;;9.87;8.10;;;4.90;73.40;;;;;;5022560;28;20208;-63
2023/12/15 05:19:28;;;;;;;10.17;8.33;;;4.90;73.50;;;;;;5024334;28;20237;-68
2023/12/15 05:21:55;;;;;;;8.53;7.57;;;4.90;73.40;;;;;;5019426;28;20211;-63
2023/12/15 05:24:21;;;;;;;9.80;7.50;;;4.90;72.50;;;;;;5018055;28;20215;-63
2023/12/15 05:26:48;;;;;;;10.33;7.67;;;4.80;72.40;;;;;;5023843;28;20737;-63
2023/12/15 05:29:14;;;;;;;9.53;8.27;;;4.90;72.60;;;;;;5026875;28;20212;-64
2023/12/15 05:31:41;;;;;;;8.97;7.57;;;5.00;72.40;;;;;;5022684;28;20217;-62
2023/12/15 05:34:07;;;;;;;10.43;8.20;;;4.90;72.50;;;;;;5022263;28;20576;-63
2023/12/15 05:36:33;;;;;;;8.20;7.27;;;4.90;71.90;;;;;;5022527;28;20717;-63
2023/12/15 05:39:00;;;;;;;8.97;7.33;;;4.90;72.70;;;;;;5022522;28;20205;-61
2023/12/15 05:41:25;;;;;;;9.70;7.07;;;4.90;72.50;;;;;;5023186;28;20232;-65
2023/12/15 05:43:52;;;;;;;9.20;7.70;;;5.00;71.40;;;;;;5025444;28;20213;-64
2023/12/15 05:46:19;;;;;;;10.33;7.97;;;5.00;70.50;;;;;;5025111;28;20235;-62
2023/12/15 05:48:46;;;;;;;10.73;8.37;;;4.90;70.80;;;;;;5013635;28;20225;-62
2023/12/15 05:51:12;;;;;;;8.37;7.57;;;4.90;71.30;;;;;;5020439;28;20209;-63
2023/12/15 05:53:39;;;;;;;8.83;6.83;;;4.90;71.50;;;;;;5021851;28;20221;-62
2023/12/15 05:56:05;;;;;;;8.57;7.47;;;4.90;70.50;;;;;;5026025;28;20589;-66
2023/12/15 05:58:31;;;;;;;8.70;7.80;;;4.90;70.90;;;;;;5025155;28;20610;-64
2023/12/15 06:00:58;;;;;;;9.77;7.07;;;4.90;70.60;;;;;;5025189;28;20214;-64
2023/12/15 06:03:24;;;;;;;7.80;6.80;;;4.90;70.80;;;;;;5024588;28;20219;-64
2023/12/15 06:05:51;;;;;;;9.70;7.47;;;4.90;69.80;;;;;;5027195;28;20238;-64
2023/12/15 06:08:17;;;;;;;8.67;7.27;;;4.80;69.20;;;;;;5021504;28;20237;-62
2023/12/15 06:10:44;;;;;;;8.03;7.23;;;4.70;69.70;;;;;;5021555;28;20224;-65
2023/12/15 06:13:10;;;;;;;7.47;6.63;;;4.70;69.20;;;;;;5021797;28;20234;-64
2023/12/15 06:15:37;;;;;;;7.97;7.17;;;4.70;69.20;;;;;;5026583;28;20273;-64
2023/12/15 06:18:03;;;;;;;8.60;6.70;;;4.70;69.00;;;;;;5021180;28;20209;-61
2023/12/15 06:20:30;;;;;;;8.70;7.10;;;4.80;69.20;;;;;;5027407;28;20585;-64
2023/12/15 06:22:57;;;;;;;9.43;8.00;;;4.80;69.10;;;;;;5023276;28;20611;-65
2023/12/15 06:25:23;;;;;;;9.47;7.53;;;4.90;69.60;;;;;;5021102;28;20722;-64
2023/12/15 06:27:49;;;;;;;8.60;6.80;;;4.80;69.30;;;;;;5021423;28;20212;-62
2023/12/15 06:30:16;;;;;;;7.13;6.20;;;4.80;69.60;;;;;;5023381;28;20218;-64
2023/12/15 06:32:42;;;;;;;6.73;6.03;;;4.80;70.30;;;;;;5019901;28;20234;-64
2023/12/15 06:35:09;;;;;;;7.13;6.43;;;4.80;70.60;;;;;;5019510;28;20227;-65
2023/12/15 06:37:35;;;;;;;6.70;5.97;;;4.80;70.20;;;;;;5024284;28;20676;-62
2023/12/15 06:40:02;;;;;;;6.40;5.67;;;4.80;70.20;;;;;;5024111;28;20216;-64
2023/12/15 06:42:29;;;;;;;6.10;5.50;;;4.70;70.00;;;;;;5027472;28;20224;-64
2023/12/15 06:44:57;;;;;;;6.80;6.07;;;4.50;69.90;;;;;;5020915;28;20232;-64
2023/12/15 06:47:23;;;;;;;6.90;6.20;;;4.60;70.90;;;;;;5024282;28;20262;-64
2023/12/15 06:49:49;;;;;;;8.83;6.27;;;4.60;70.40;;;;;;5020961;28;20214;-66
2023/12/15 06:52:16;;;;;;;7.50;6.73;;;4.70;70.30;;;;;;5024494;28;20221;-65
2023/12/15 06:54:42;;;;;;;7.17;6.47;;;4.70;70.00;;;;;;5024075;28;20683;-62
2023/12/15 06:57:09;;;;;;;8.33;7.00;;;4.80;70.00;;;;;;5024390;28;20224;-64
2023/12/15 06:59:36;;;;;;;8.37;7.10;;;4.80;69.80;;;;;;5021820;28;20217;-63
2023/12/15 07:02:03;;;;;;;7.70;6.53;;;4.80;70.30;;;;;;5030862;28;20205;-65
2023/12/15 07:04:29;;;;;;;8.53;7.63;;;4.80;70.00;;;;;;5026498;28;20209;-64
2023/12/15 07:06:56;;;;;;;7.60;6.80;;;4.70;70.80;;;;;;5019263;28;20217;-64
2023/12/15 07:09:23;;;;;;;9.00;7.60;;;4.70;70.90;;;;;;5020537;28;20265;-65
2023/12/15 07:11:49;;;;;;;7.20;6.50;;;4.80;70.70;;;;;;5023113;28;20213;-63
2023/12/15 07:14:15;;;;;;;7.23;6.23;;;4.70;70.40;;;;;;5020532;28;20212;-62
2023/12/15 07:16:42;;;;;;;6.80;6.13;;;4.70;70.20;;;;;;5023675;28;20661;-64
2023/12/15 07:19:08;;;;;;;7.33;6.53;;;4.70;70.60;;;;;;5024965;28;20237;-63
2023/12/15 07:21:35;;;;;;;7.63;6.83;;;4.60;69.90;;;;;;5023559;28;20207;-64
2023/12/15 07:24:01;;;;;;;8.00;7.20;;;4.60;69.90;;;;;;5026060;28;20670;-66
2023/12/15 07:26:28;;;;;;;8.00;6.97;;;4.60;70.40;;;;;;5030777;28;20715;-63
2023/12/15 07:28:54;;;;;;;7.57;6.60;;;4.60;69.60;;;;;;5027407;28;20238;-64
2023/12/15 07:31:20;;;;;;;7.73;6.80;;;4.70;69.80;;;;;;5026524;28;20232;-62
2023/12/15 07:33:47;;;;;;;7.53;6.80;;;4.60;69.50;;;;;;5024184;28;20239;-63
2023/12/15 07:36:13;;;;;;;8.27;7.40;;;4.70;71.00;;;;;;5022862;28;20233;-64
2023/12/15 07:38:40;;;;;;;7.43;6.63;;;4.70;70.50;;;;;;5015250;28;20585;-69
2023/12/15 07:41:07;;;;;;;7.97;6.63;;;4.70;70.00;;;;;;5022852;28;20691;-64
2023/12/15 07:43:34;;;;;;;9.00;7.43;;;4.70;69.90;;;;;;5024826;28;20202;-63
2023/12/15 07:46:00;;;;;;;9.73;7.93;;;4.70;69.00;;;;;;5027145;28;20220;-64
2023/12/15 07:48:27;;;;;;;9.07;7.50;;;4.60;69.50;;;;;;5025067;28;20231;-64
2023/12/15 07:50:54;;;;;;;10.33;8.03;;;4.60;69.30;;;;;;5024929;28;20694;-64
2023/12/15 07:53:20;;;;;;;10.83;8.33;;;4.70;70.10;;;;;;5022786;28;20394;-64
2023/12/15 07:55:47;;;;;;;8.90;7.80;;;4.70;69.80;;;;;;5016878;28;20235;-65
2023/12/15 07:58:13;;;;;;;8.90;7.63;;;4.70;69.80;;;;;;5016964;28;20207;-64
2023/12/15 08:00:40;;;;;;;9.60;8.03;;;4.80;69.70;;;;;;5023865;28;20212;-65
2023/12/15 08:03:06;;;;;;;9.10;8.13;;;4.80;69.70;;;;;;5020532;28;20216;-65
2023/12/15 08:05:33;;;;;;;10.50;9.07;;;4.80;70.30;;;;;;5020108;28;20232;-64
2023/12/15 08:07:59;;;;;;;8.50;7.60;;;4.80;69.60;;;;;;5018854;28;20235;-67
2023/12/15 08:10:29;;;;;;;10.07;8.47;;;4.90;69.80;;;;;;5029905;28;20286;-64
2023/12/15 08:12:55;;;;;;;10.97;8.43;;;4.90;70.20;;;;;;5021879;28;20259;-62
2023/12/15 08:15:22;;;;;;;9.53;7.93;;;4.90;69.70;;;;;;5028288;28;20739;-67
2023/12/15 08:17:49;;;;;;;11.67;9.33;;;4.90;69.50;;;;;;5017906;28;20214;-65
2023/12/15 08:20:15;;;;;;;10.70;7.93;;;4.90;69.70;;;;;;5029557;28;20725;-62
2023/12/15 08:22:41;;;;;;;10.33;7.90;;;4.90;69.60;;;;;;5024393;28;20213;-63
2023/12/15 08:25:08;;;;;;;11.83;8.23;;;5.00;68.90;;;;;;5029383;28;20225;-62
2023/12/15 08:27:37;;;;;;;8.37;7.47;;;4.90;68.40;;;;;;5022316;28;20204;-67
2023/12/15 08:30:03;;;;;;;9.60;7.80;;;4.80;69.00;;;;;;5018517;28;20213;-64
2023/12/15 08:32:31;;;;;;;11.10;8.57;;;5.00;69.80;;;;;;5019458;28;20207;-63
2023/12/15 08:34:57;;;;;;;9.10;8.00;;;5.00;68.80;;;;;;5015445;28;20226;-69
2023/12/15 08:37:24;;;;;;;9.63;7.33;;;5.00;68.00;;;;;;5022102;28;20199;-73
2023/12/15 08:39:50;;;;;;;10.33;7.77;;;5.00;68.10;;;;;;5022552;28;20657;-65
2023/12/15 08:42:17;;;;;;;8.20;7.30;;;5.00;67.30;;;;;;5018748;28;20683;-64
2023/12/15 08:44:44;;;;;;;9.07;7.37;;;4.90;67.10;;;;;;5029229;28;20345;-67
2023/12/15 08:47:10;;;;;;;8.67;7.73;;;4.90;67.30;;;;;;5022575;28;20703;-64
2023/12/15 08:49:36;;;;;;;8.03;7.13;;;4.80;68.00;;;;;;5023667;28;20673;-63
2023/12/15 08:52:03;;;;;;;7.40;6.33;;;4.90;68.00;;;;;;5026201;28;20285;-64
2023/12/15 08:54:29;;;;;;;8.50;7.60;;;5.00;67.00;;;;;;5024037;28;20715;-64
2023/12/15 08:56:56;;;;;;;7.73;6.53;;;5.00;66.90;;;;;;5030673;28;20201;-65
2023/12/15 08:59:22;;;;;;;9.53;6.97;;;5.00;66.20;;;;;;5002029;28;20211;-65
2023/12/15 09:01:49;;;;;;;7.83;6.73;;;5.00;67.00;;;;;;5020252;28;20209;-65
2023/12/15 09:04:15;;;;;;;8.03;6.73;;;5.00;66.30;;;;;;5026569;28;20207;-64
2023/12/15 09:06:41;;;;;;;8.33;6.67;;;5.00;66.10;;;;;;5020808;28;20717;-65
2023/12/15 09:09:10;;;;;;;7.77;6.40;;;5.00;65.90;;;;;;5025753;28;20233;-67
2023/12/15 09:11:37;;;;;;;8.63;6.33;;;4.90;66.10;;;;;;5021591;28;20205;-65
2023/12/15 09:14:03;;;;;;;8.73;6.17;;;4.90;65.90;;;;;;5026769;28;20244;-65
2023/12/15 09:16:30;;;;;;;8.27;6.63;;;4.90;65.70;;;;;;5021226;28;20247;-65
2023/12/15 09:18:56;;;;;;;7.17;6.47;;;4.90;65.60;;;;;;5033896;28;20632;-65
2023/12/15 09:21:23;;;;;;;8.00;6.83;;;5.00;65.90;;;;;;5029295;28;20706;-65
2023/12/15 09:23:49;;;;;;;7.77;6.97;;;5.00;65.50;;;;;;5031849;28;20235;-67
2023/12/15 09:26:15;;;;;;;7.80;6.97;;;5.10;65.30;;;;;;5047638;28;20253;-65
2023/12/15 09:28:42;;;;;;;8.67;7.10;;;5.10;64.80;;;;;;5040183;28;20213;-65
2023/12/15 09:31:08;;;;;;;8.13;7.00;;;5.10;65.30;;;;;;5038398;28;20212;-65
2023/12/15 09:33:35;;;;;;;7.00;5.90;;;5.10;65.20;;;;;;5051737;28;20244;-65
2023/12/15 09:36:01;;;;;;;8.43;6.00;;;5.10;65.20;;;;;;5042830;28;20227;-65
2023/12/15 09:38:28;;;;;;;6.77;6.07;;;5.10;65.60;;;;;;5044504;28;20212;-66
2023/12/15 09:40:54;;;;;;;7.93;6.83;;;5.10;65.00;;;;;;5043987;28;20709;-65
2023/12/15 09:43:20;;;;;;;9.47;6.60;;;4.90;64.80;;;;;;5039427;28;20211;-70
2023/12/15 09:45:47;;;;;;;7.40;6.30;;;4.90;65.10;;;;;;5039654;28;20713;-64
2023/12/15 09:48:13;;;;;;;7.63;5.87;;;5.00;65.30;;;;;;5045255;28;20565;-64
2023/12/15 09:50:40;;;;;;;7.80;6.33;;;5.00;64.70;;;;;;5044802;28;20574;-65
2023/12/15 09:53:06;;;;;;;9.10;6.97;;;5.20;65.20;;;;;;5050042;28;20228;-66
2023/12/15 09:55:33;;;;;;;8.90;6.83;;;5.20;64.50;;;;;;5044926;28;20235;-65
2023/12/15 09:57:59;;;;;;;7.37;6.57;;;5.30;64.80;;;;;;5051129;28;20299;-64
2023/12/15 10:00:26;;;;;;;8.77;6.17;;;5.20;63.80;;;;;;5034840;28;20223;-65
2023/12/15 10:02:52;;;;;;;7.40;6.47;;;5.20;64.10;;;;;;5051182;28;20212;-65
2023/12/15 10:05:18;;;;;;;6.53;5.83;;;5.20;64.10;;;;;;5049431;28;20241;-65
2023/12/15 10:07:45;;;;;;;8.43;6.57;;;5.30;65.00;;;;;;5033061;28;20211;-63
2023/12/15 10:10:12;;;;;;;7.47;6.17;;;5.30;63.90;;;;;;5049405;28;20209;-65
2023/12/15 10:12:39;;;;;;;7.07;6.37;;;5.10;63.60;;;;;;5052649;28;20630;-65
2023/12/15 10:15:06;;;;;;;8.93;6.83;;;5.00;64.10;;;;;;5052332;28;20225;-65
2023/12/15 10:17:33;;;;;;;7.90;6.57;;;5.10;64.40;;;;;;5051081;28;20216;-65
2023/12/15 10:19:59;;;;;;;10.97;6.63;;;5.10;64.90;;;;;;5043846;28;20361;-65
2023/12/15 10:22:26;;;;;;;8.47;6.33;;;5.20;64.30;;;;;;5043818;28;20212;-65
2023/12/15 10:24:52;;;;;;;7.47;6.63;;;5.20;63.80;;;;;;5039008;28;20715;-66
2023/12/15 10:27:19;;;;;;;7.73;6.80;;;5.40;66.20;;;;;;5047284;28;20211;-64
2023/12/15 10:29:45;;;;;;;7.37;6.57;;;5.30;64.60;;;;;;5011554;28;20220;-64
2023/12/15 10:32:12;;;;;;;7.67;6.87;;;5.20;63.80;;;;;;5042863;28;20298;-64
2023/12/15 10:34:38;;;;;;;6.77;6.07;;;5.20;63.80;;;;;;5043401;28;20686;-65
2023/12/15 10:37:05;;;;;;;7.03;5.93;;;5.20;64.00;;;;;;5046271;28;20211;-65
2023/12/15 10:39:32;;;;;;;8.93;6.63;;;5.20;63.80;;;;;;5037109;28;20692;-65
2023/12/15 10:41:58;;;;;;;9.17;6.80;;;5.20;63.80;;;;;;5048989;28;20217;-64
2023/12/15 10:44:24;;;;;;;8.83;6.97;;;5.20;63.80;;;;;;5015474;28;20708;-64
2023/12/15 10:46:51;;;;;;;7.90;6.43;;;5.20;64.40;;;;;;5034725;28;20245;-67
2023/12/15 10:49:18;;;;;;;7.13;6.40;;;5.30;63.90;;;;;;5038468;28;20590;-65
2023/12/15 10:51:44;;;;;;;7.43;6.63;;;5.10;63.70;;;;;;5029990;28;22475;-65
2023/12/15 10:54:11;;;;;;;7.37;6.23;;;5.20;64.00;;;;;;5026499;28;20606;-65
2023/12/15 10:56:37;;;;;;;7.13;6.33;;;5.30;63.90;;;;;;5041265;28;20338;-65
2023/12/15 10:59:04;;;;;;;7.23;6.40;;;5.20;64.10;;;;;;5044323;28;20337;-65
2023/12/15 11:01:31;;;;;;;7.00;6.13;;;5.20;65.00;;;;;;5040778;28;20292;-65
2023/12/15 11:03:58;;;;;;;8.00;6.40;;;5.10;64.50;;;;;;5036445;28;20224;-65
2023/12/15 11:06:24;;;;;;;7.27;6.53;;;5.10;64.40;;;;;;5037518;28;20244;-67
2023/12/15 11:08:50;;;;;;;9.13;6.20;;;5.20;64.50;;;;;;5051640;28;20223;-66
2023/12/15 11:11:17;;;;;;;7.77;6.90;;;5.10;62.90;;;;;;5049145;28;20204;-65
2023/12/15 11:13:43;;;;;;;7.13;6.00;;;5.10;63.70;;;;;;5042200;28;20231;-64
2023/12/15 11:16:10;;;;;;;6.70;6.00;;;5.20;63.80;;;;;;5040224;28;20236;-65
2023/12/15 11:18:36;;;;;;;8.60;6.80;;;5.30;63.90;;;;;;5039529;28;20206;-65
2023/12/15 11:21:03;;;;;;;9.13;6.77;;;5.30;63.40;;;;;;5039036;28;20208;-66
2023/12/15 11:23:30;;;;;;;7.63;6.30;;;5.30;63.90;;;;;;5041719;28;20206;-66
2023/12/15 11:25:56;;;;;;;7.57;6.23;;;5.30;62.80;;;;;;5048560;28;20312;-65
2023/12/15 11:28:23;;;;;;;7.70;6.50;;;5.30;63.00;;;;;;5050749;28;20295;-63
2023/12/15 11:30:51;;;;;;;7.00;6.27;;;5.40;63.50;;;;;;5045151;28;20213;-66
2023/12/15 11:33:17;;;;;;;7.00;6.03;;;5.50;63.30;;;;;;5051365;28;20265;-65
2023/12/15 11:35:44;;;;;;;9.87;7.00;;;5.50;61.70;;;;;;5037002;28;20237;-66
2023/12/15 11:38:10;;;;;;;6.97;6.27;;;5.40;62.80;;;;;;5048158;28;20204;-66
2023/12/15 11:40:37;;;;;;;7.17;6.40;;;5.40;61.10;;;;;;5035331;28;20680;-65
2023/12/15 11:43:04;;;;;;;7.63;6.10;;;5.30;61.40;;;;;;5041985;28;20237;-65
2023/12/15 11:45:31;;;;;;;7.70;6.77;;;5.40;62.20;;;;;;5047097;28;20263;-66
2023/12/15 11:47:57;;;;;;;7.30;6.53;;;5.30;61.10;;;;;;5051240;28;20235;-67
2023/12/15 11:50:24;;;;;;;7.93;6.60;;;5.40;62.10;;;;;;5039874;28;20214;-68
2023/12/15 11:52:51;;;;;;;7.47;6.57;;;5.50;61.90;;;;;;5045319;28;20292;-65
2023/12/15 11:55:19;;;;;;;9.77;6.53;;;5.50;61.60;;;;;;5044487;28;20228;-65
2023/12/15 11:57:46;;;;;;;7.10;6.00;;;5.50;61.30;;;;;;5047971;28;20638;-65
2023/12/15 12:00:17;;;;;;;7.90;5.67;;;5.60;60.50;;;;;;5043898;28;20817;-70
2023/12/15 12:02:46;;;;;;;7.13;6.43;;;5.60;60.40;;;;;;5043518;28;20645;-65
2023/12/15 12:05:13;;;;;;;6.63;5.47;;;5.60;61.00;;;;;;5044564;28;20237;-68
2023/12/15 12:07:39;;;;;;;8.47;5.77;;;5.60;60.80;;;;;;5046638;28;20214;-66
2023/12/15 12:10:05;;;;;;;8.00;6.00;;;5.60;60.00;;;;;;5041973;28;20575;-65
2023/12/15 12:12:32;;;;;;;7.53;6.40;;;5.50;60.10;;;;;;5035152;28;20212;-66
2023/12/15 12:14:58;;;;;;;6.10;5.47;;;5.50;60.70;;;;;;5040945;28;20619;-65
2023/12/15 12:17:25;;;;;;;6.63;5.73;;;5.70;60.30;;;;;;5040551;28;20205;-64
2023/12/15 12:19:51;;;;;;;9.17;5.10;;;5.60;60.10;;;;;;5032869;28;20219;-66
2023/12/15 12:22:19;;;;;;;7.20;5.97;;;5.60;60.20;;;;;;5036566;28;20208;-66
2023/12/15 12:24:45;;;;;;;7.43;5.60;;;5.60;60.30;;;;;;5040473;28;20699;-65
2023/12/15 12:27:12;;;;;;;6.80;5.60;;;5.70;60.70;;;;;;5046039;28;20208;-63
2023/12/15 12:29:39;;;;;;;7.30;6.00;;;5.80;61.10;;;;;;5050746;28;21396;-66
2023/12/15 12:32:05;;;;;;;6.50;5.57;;;5.80;60.20;;;;;;5038907;28;20262;-64
2023/12/15 12:34:32;;;;;;;6.50;5.70;;;5.80;60.20;;;;;;5048563;28;20224;-63
2023/12/15 12:36:58;;;;;;;7.90;6.00;;;5.80;60.40;;;;;;5050946;28;20333;-64
2023/12/15 12:39:25;;;;;;;6.30;5.67;;;5.80;60.30;;;;;;5036497;28;20205;-65
2023/12/15 12:41:51;;;;;;;8.17;5.53;;;5.90;60.60;;;;;;5054006;28;20209;-65
2023/12/15 12:44:18;;;;;;;7.63;5.87;;;5.90;60.20;;;;;;5041345;28;20209;-65
2023/12/15 12:46:44;;;;;;;8.90;5.57;;;5.90;59.80;;;;;;5044745;28;20220;-63
2023/12/15 12:49:11;;;;;;;9.33;6.43;;;5.80;60.40;;;;;;5050548;28;20215;-67
2023/12/15 12:51:37;;;;;;;8.77;5.57;;;5.80;60.00;;;;;;5041281;28;20224;-67